sensor_id;sensor_type;location;lat;lon;timestamp;pressure;altitude;pressure_sealevel;temperature;humidity
21520;BME280;10921;53.614;9.882;2023-10-13T00:01:59;100960.69;;;15.43;91.91
21520;BME280;10921;53.614;9.882;2023-10-13T00:04:26;100953.66;;;15.34;91.90
21520;BME280;10921;53.614;9.882;2023-10-13T00:06:56;100919.72;;;15.17;92.08
21520;BME280;10921;53.614;9.882;2023-10-13T00:09:24;100868.69;;;14.84;92.06
21520;BME280;10921;53.614;9.882;2023-10-13T00:11:53;100942.06;;;15.33;91.99
21520;BME280;10921;53.614;9.882;2023-10-13T00:14:20;100952.63;;;15.43;92.31
21520;BME280;10921;53.614;9.882;2023-10-13T00:16:57;100951.81;;;15.42;92.37
21520;BME280;10921;53.614;9.882;2023-10-13T00:19:38;100941.88;;;15.43;93.62
21520;BME280;10921;53.614;9.882;2023-10-13T00:22:11;100947.59;;;15.40;92.74
21520;BME280;10921;53.614;9.882;2023-10-13T00:24:40;100939.69;;;15.38;93.19
21520;BME280;10921;53.614;9.882;2023-10-13T00:27:10;100937.19;;;15.37;93.29
21520;BME280;10921;53.614;9.882;2023-10-13T00:29:51;100937.19;;;15.37;93.54
21520;BME280;10921;53.614;9.882;2023-10-13T00:32:31;100917.53;;;15.28;93.67
21520;BME280;10921;53.614;9.882;2023-10-13T00:34:58;100918.88;;;15.24;93.74
21520;BME280;10921;53.614;9.882;2023-10-13T00:37:30;100928.28;;;15.28;94.13
21520;BME280;10921;53.614;9.882;2023-10-13T00:40:08;100919.56;;;15.26;94.38
21520;BME280;10921;53.614;9.882;2023-10-13T00:42:44;100898.22;;;15.17;94.53
21520;BME280;10921;53.614;9.882;2023-10-13T00:45:17;100863.63;;;14.97;95.02
21520;BME280;10921;53.614;9.882;2023-10-13T00:47:44;100914.16;;;15.34;95.17
21520;BME280;10921;53.614;9.882;2023-10-13T00:50:16;100915.66;;;15.37;95.25
21520;BME280;10921;53.614;9.882;2023-10-13T00:52:45;100907.78;;;15.35;95.65
21520;BME280;10921;53.614;9.882;2023-10-13T00:55:18;100895.34;;;15.34;95.53
21520;BME280;10921;53.614;9.882;2023-10-13T00:57:45;100863.13;;;15.18;95.75
21520;BME280;10921;53.614;9.882;2023-10-13T01:00:13;100896.16;;;15.43;95.72
21520;BME280;10921;53.614;9.882;2023-10-13T01:02:53;100831.56;;;15.12;96.04
21520;BME280;10921;53.614;9.882;2023-10-13T01:05:25;100887.75;;;15.46;96.01
21520;BME280;10921;53.614;9.882;2023-10-13T01:07:52;100869.81;;;15.38;96.12
21520;BME280;10921;53.614;9.882;2023-10-13T01:10:22;100816.63;;;15.09;96.09
21520;BME280;10921;53.614;9.882;2023-10-13T01:12:54;100842.75;;;15.32;96.12
21520;BME280;10921;53.614;9.882;2023-10-13T01:15:21;100872.78;;;15.43;96.38
21520;BME280;10921;53.614;9.882;2023-10-13T01:17:48;100870.44;;;15.48;96.64
21520;BME280;10921;53.614;9.882;2023-10-13T01:20:15;100870.09;;;15.52;96.60
21520;BME280;10921;53.614;9.882;2023-10-13T01:22:51;100843.03;;;15.45;96.74
21520;BME280;10921;53.614;9.882;2023-10-13T01:25:25;100829.78;;;15.43;96.66
21520;BME280;10921;53.614;9.882;2023-10-13T01:27:55;100810.81;;;15.37;96.79
21520;BME280;10921;53.614;9.882;2023-10-13T01:30:22;100861.16;;;15.67;96.76
21520;BME280;10921;53.614;9.882;2023-10-13T01:32:53;100867.22;;;15.69;96.99
21520;BME280;10921;53.614;9.882;2023-10-13T01:35:26;100791.50;;;15.33;96.69
21520;BME280;10921;53.614;9.882;2023-10-13T01:38:02;100847.66;;;15.75;96.61
21520;BME280;10921;53.614;9.882;2023-10-13T01:40:29;100834.72;;;15.79;96.73
21520;BME280;10921;53.614;9.882;2023-10-13T01:42:59;100810.06;;;15.67;96.67
21520;BME280;10921;53.614;9.882;2023-10-13T01:45:26;100788.56;;;15.59;96.77
21520;BME280;10921;53.614;9.882;2023-10-13T01:47:56;100800.63;;;15.71;96.86
21520;BME280;10921;53.614;9.882;2023-10-13T01:50:23;100800.25;;;15.74;97.06
21520;BME280;10921;53.614;9.882;2023-10-13T01:52:57;100814.84;;;15.88;96.64
21520;BME280;10921;53.614;9.882;2023-10-13T01:55:40;100811.94;;;15.90;97.08
21520;BME280;10921;53.614;9.882;2023-10-13T01:58:11;100797.84;;;15.88;97.59
21520;BME280;10921;53.614;9.882;2023-10-13T02:00:45;100795.44;;;15.93;98.33
21520;BME280;10921;53.614;9.882;2023-10-13T02:03:15;100802.34;;;15.95;98.00
21520;BME280;10921;53.614;9.882;2023-10-13T02:05:46;100801.97;;;15.98;98.37
21520;BME280;10921;53.614;9.882;2023-10-13T02:10:54;100784.66;;;16.01;98.74
21520;BME280;10921;53.614;9.882;2023-10-13T02:13:22;100774.72;;;16.01;98.25
21520;BME280;10921;53.614;9.882;2023-10-13T02:15:53;100783.25;;;16.05;98.62
21520;BME280;10921;53.614;9.882;2023-10-13T02:18:23;100762.28;;;16.00;98.27
21520;BME280;10921;53.614;9.882;2023-10-13T02:20:56;100713.63;;;15.79;98.70
21520;BME280;10921;53.614;9.882;2023-10-13T02:23:30;100752.81;;;16.04;98.26
21520;BME280;10921;53.614;9.882;2023-10-13T02:25:59;100748.81;;;16.00;99.07
21520;BME280;10921;53.614;9.882;2023-10-13T02:28:37;100754.75;;;16.18;98.61
21520;BME280;10921;53.614;9.882;2023-10-13T02:31:04;100737.56;;;15.97;98.66
21520;BME280;10921;53.614;9.882;2023-10-13T02:33:31;100693.38;;;15.68;98.94
21520;BME280;10921;53.614;9.882;2023-10-13T02:36:04;100698.34;;;15.79;100.00
21520;BME280;10921;53.614;9.882;2023-10-13T02:38:32;100742.72;;;16.06;99.51
21520;BME280;10921;53.614;9.882;2023-10-13T02:41:13;100738.81;;;16.09;99.86
21520;BME280;10921;53.614;9.882;2023-10-13T02:43:52;100725.09;;;16.04;100.00
21520;BME280;10921;53.614;9.882;2023-10-13T02:46:23;100734.75;;;16.13;100.00
21520;BME280;10921;53.614;9.882;2023-10-13T02:48:50;100727.53;;;16.13;100.00
21520;BME280;10921;53.614;9.882;2023-10-13T02:51:20;100726.34;;;16.16;100.00
21520;BME280;10921;53.614;9.882;2023-10-13T02:54:03;100733.41;;;16.17;100.00
21520;BME280;10921;53.614;9.882;2023-10-13T02:56:36;100697.50;;;16.02;100.00
21520;BME280;10921;53.614;9.882;2023-10-13T02:59:03;100712.53;;;16.19;100.00
21520;BME280;10921;53.614;9.882;2023-10-13T03:01:33;100709.03;;;16.33;100.00
21520;BME280;10921;53.614;9.882;2023-10-13T03:04:03;100674.41;;;16.07;100.00
21520;BME280;10921;53.614;9.882;2023-10-13T03:06:36;100697.47;;;16.25;100.00
21520;BME280;10921;53.614;9.882;2023-10-13T03:09:10;100699.81;;;16.28;100.00
21520;BME280;10921;53.614;9.882;2023-10-13T03:11:46;100645.72;;;16.00;100.00
21520;BME280;10921;53.614;9.882;2023-10-13T03:14:17;100684.31;;;16.30;100.00
21520;BME280;10921;53.614;9.882;2023-10-13T03:16:56;100686.66;;;16.33;100.00
21520;BME280;10921;53.614;9.882;2023-10-13T03:19:33;100636.06;;;16.05;100.00
21520;BME280;10921;53.614;9.882;2023-10-13T03:22:04;100668.16;;;16.30;100.00
21520;BME280;10921;53.614;9.882;2023-10-13T03:24:38;100634.31;;;16.12;100.00
21520;BME280;10921;53.614;9.882;2023-10-13T03:27:13;100671.41;;;16.40;100.00
21520;BME280;10921;53.614;9.882;2023-10-13T03:29:45;100669.38;;;16.42;100.00
21520;BME280;10921;53.614;9.882;2023-10-13T03:32:15;100665.66;;;16.43;100.00
21520;BME280;10921;53.614;9.882;2023-10-13T03:34:43;100653.75;;;16.37;100.00
21520;BME280;10921;53.614;9.882;2023-10-13T03:37:19;100672.56;;;16.45;100.00
21520;BME280;10921;53.614;9.882;2023-10-13T03:40:05;100663.28;;;16.48;100.00
21520;BME280;10921;53.614;9.882;2023-10-13T03:42:33;100655.00;;;16.49;100.00
21520;BME280;10921;53.614;9.882;2023-10-13T03:45:00;100623.59;;;16.27;100.00
21520;BME280;10921;53.614;9.882;2023-10-13T03:47:26;100646.47;;;16.46;100.00
21520;BME280;10921;53.614;9.882;2023-10-13T03:49:54;100650.66;;;16.48;100.00
21520;BME280;10921;53.614;9.882;2023-10-13T03:52:40;100638.47;;;16.52;100.00
21520;BME280;10921;53.614;9.882;2023-10-13T03:55:07;100632.69;;;16.56;100.00
21520;BME280;10921;53.614;9.882;2023-10-13T03:57:42;100642.09;;;16.60;100.00
21520;BME280;10921;53.614;9.882;2023-10-13T04:00:10;100629.13;;;16.63;100.00
21520;BME280;10921;53.614;9.882;2023-10-13T04:02:39;100634.13;;;16.66;100.00
21520;BME280;10921;53.614;9.882;2023-10-13T04:05:12;100605.03;;;16.47;100.00
21520;BME280;10921;53.614;9.882;2023-10-13T04:08:02;100624.19;;;16.67;100.00
21520;BME280;10921;53.614;9.882;2023-10-13T04:10:48;100622.25;;;16.75;100.00
21520;BME280;10921;53.614;9.882;2023-10-13T04:13:21;100646.31;;;16.77;100.00
21520;BME280;10921;53.614;9.882;2023-10-13T04:16:09;100593.59;;;16.60;100.00
21520;BME280;10921;53.614;9.882;2023-10-13T04:19:02;100605.59;;;16.72;100.00
21520;BME280;10921;53.614;9.882;2023-10-13T04:21:28;100551.72;;;16.42;100.00
21520;BME280;10921;53.614;9.882;2023-10-13T04:24:22;100612.09;;;16.92;100.00
21520;BME280;10921;53.614;9.882;2023-10-13T04:26:52;100603.66;;;16.95;100.00
21520;BME280;10921;53.614;9.882;2023-10-13T04:29:38;100606.78;;;16.99;100.00
21520;BME280;10921;53.614;9.882;2023-10-13T04:32:20;100566.13;;;16.79;100.00
21520;BME280;10921;53.614;9.882;2023-10-13T04:34:57;100591.72;;;17.04;100.00
21520;BME280;10921;53.614;9.882;2023-10-13T04:37:35;100581.50;;;17.00;100.00
21520;BME280;10921;53.614;9.882;2023-10-13T04:40:20;100586.84;;;17.14;100.00
21520;BME280;10921;53.614;9.882;2023-10-13T04:42:54;100575.22;;;17.14;100.00
21520;BME280;10921;53.614;9.882;2023-10-13T04:45:24;100568.06;;;17.21;100.00
21520;BME280;10921;53.614;9.882;2023-10-13T04:47:57;100549.66;;;17.25;100.00
21520;BME280;10921;53.614;9.882;2023-10-13T04:50:40;100553.78;;;17.27;100.00
21520;BME280;10921;53.614;9.882;2023-10-13T04:53:17;100534.16;;;17.33;100.00
21520;BME280;10921;53.614;9.882;2023-10-13T04:56:00;100537.53;;;17.42;100.00
21520;BME280;10921;53.614;9.882;2023-10-13T04:58:30;100534.47;;;17.45;100.00
21520;BME280;10921;53.614;9.882;2023-10-13T05:01:03;100530.81;;;17.52;100.00
21520;BME280;10921;53.614;9.882;2023-10-13T05:03:49;100523.38;;;17.54;100.00
21520;BME280;10921;53.614;9.882;2023-10-13T05:06:35;100524.25;;;17.62;100.00
21520;BME280;10921;53.614;9.882;2023-10-13T05:09:10;100499.97;;;17.62;100.00
21520;BME280;10921;53.614;9.882;2023-10-13T05:11:55;100486.03;;;17.58;100.00
21520;BME280;10921;53.614;9.882;2023-10-13T05:14:40;100488.47;;;17.74;100.00
21520;BME280;10921;53.614;9.882;2023-10-13T05:17:25;100495.78;;;17.80;100.00
21520;BME280;10921;53.614;9.882;2023-10-13T05:20:10;100488.78;;;17.86;100.00
21520;BME280;10921;53.614;9.882;2023-10-13T05:22:55;100425.81;;;17.51;100.00
21520;BME280;10921;53.614;9.882;2023-10-13T05:25:40;100474.25;;;17.87;100.00
21520;BME280;10921;53.614;9.882;2023-10-13T05:28:25;100463.41;;;17.80;100.00
21520;BME280;10921;53.614;9.882;2023-10-13T05:31:10;100489.03;;;17.98;100.00
21520;BME280;10921;53.614;9.882;2023-10-13T05:33:55;100478.69;;;18.01;100.00
21520;BME280;10921;53.614;9.882;2023-10-13T05:36:40;100449.53;;;17.90;100.00
21520;BME280;10921;53.614;9.882;2023-10-13T05:39:26;100433.34;;;17.90;100.00
21520;BME280;10921;53.614;9.882;2023-10-13T05:42:10;100474.41;;;18.13;100.00
21520;BME280;10921;53.614;9.882;2023-10-13T05:44:56;100464.63;;;18.12;100.00
21520;BME280;10921;53.614;9.882;2023-10-13T05:47:35;100412.75;;;17.82;100.00
21520;BME280;10921;53.614;9.882;2023-10-13T05:50:05;100460.91;;;18.20;100.00
21520;BME280;10921;53.614;9.882;2023-10-13T05:52:43;100460.50;;;18.23;100.00
21520;BME280;10921;53.614;9.882;2023-10-13T05:55:24;100416.16;;;17.98;100.00
21520;BME280;10921;53.614;9.882;2023-10-13T05:58:09;100453.44;;;18.22;100.00
21520;BME280;10921;53.614;9.882;2023-10-13T06:00:55;100430.56;;;18.11;100.00
21520;BME280;10921;53.614;9.882;2023-10-13T06:03:40;100463.06;;;18.31;100.00
21520;BME280;10921;53.614;9.882;2023-10-13T06:06:26;100446.22;;;18.29;100.00
21520;BME280;10921;53.614;9.882;2023-10-13T06:09:10;100428.09;;;18.16;100.00
21520;BME280;10921;53.614;9.882;2023-10-13T06:11:56;100452.47;;;18.36;100.00
21520;BME280;10921;53.614;9.882;2023-10-13T06:14:45;100446.03;;;18.37;100.00
21520;BME280;10921;53.614;9.882;2023-10-13T06:17:30;100447.50;;;18.40;100.00
21520;BME280;10921;53.614;9.882;2023-10-13T06:20:15;100411.91;;;18.23;100.00
21520;BME280;10921;53.614;9.882;2023-10-13T06:23:00;100443.78;;;18.41;100.00
21520;BME280;10921;53.614;9.882;2023-10-13T06:25:52;100425.47;;;18.36;100.00
21520;BME280;10921;53.614;9.882;2023-10-13T06:28:38;100435.88;;;18.39;100.00
21520;BME280;10921;53.614;9.882;2023-10-13T06:31:12;100433.41;;;18.44;100.00
21520;BME280;10921;53.614;9.882;2023-10-13T06:33:48;100392.81;;;18.24;100.00
21520;BME280;10921;53.614;9.882;2023-10-13T06:36:15;100373.25;;;18.16;100.00
21520;BME280;10921;53.614;9.882;2023-10-13T06:38:44;100405.50;;;18.31;100.00
21520;BME280;10921;53.614;9.882;2023-10-13T06:41:10;100424.84;;;18.41;100.00
21520;BME280;10921;53.614;9.882;2023-10-13T06:43:46;100389.91;;;18.26;100.00
21520;BME280;10921;53.614;9.882;2023-10-13T06:46:26;100415.97;;;18.47;100.00
21520;BME280;10921;53.614;9.882;2023-10-13T06:48:55;100388.28;;;18.32;100.00
21520;BME280;10921;53.614;9.882;2023-10-13T06:51:25;100415.13;;;18.53;100.00
21520;BME280;10921;53.614;9.882;2023-10-13T06:53:58;100406.59;;;18.49;100.00
21520;BME280;10921;53.614;9.882;2023-10-13T06:56:24;100410.34;;;18.55;100.00
21520;BME280;10921;53.614;9.882;2023-10-13T06:58:55;100396.22;;;18.46;100.00
21520;BME280;10921;53.614;9.882;2023-10-13T07:01:31;100402.25;;;18.55;100.00
21520;BME280;10921;53.614;9.882;2023-10-13T07:04:08;100391.69;;;18.60;100.00
21520;BME280;10921;53.614;9.882;2023-10-13T07:06:43;100393.38;;;18.61;100.00
21520;BME280;10921;53.614;9.882;2023-10-13T07:09:17;100382.75;;;18.59;100.00
21520;BME280;10921;53.614;9.882;2023-10-13T07:12:05;100348.38;;;18.34;100.00
21520;BME280;10921;53.614;9.882;2023-10-13T07:14:49;100348.19;;;18.42;100.00
21520;BME280;10921;53.614;9.882;2023-10-13T07:17:19;100370.53;;;18.64;100.00
21520;BME280;10921;53.614;9.882;2023-10-13T07:19:53;100346.56;;;18.47;100.00
21520;BME280;10921;53.614;9.882;2023-10-13T07:22:20;100370.28;;;18.65;100.00
21520;BME280;10921;53.614;9.882;2023-10-13T07:24:48;100364.22;;;18.56;100.00
21520;BME280;10921;53.614;9.882;2023-10-13T07:27:16;100359.72;;;18.64;100.00
21520;BME280;10921;53.614;9.882;2023-10-13T07:29:54;100357.59;;;18.66;100.00
21520;BME280;10921;53.614;9.882;2023-10-13T07:32:41;100353.88;;;18.67;100.00
21520;BME280;10921;53.614;9.882;2023-10-13T07:35:17;100337.25;;;18.63;100.00
21520;BME280;10921;53.614;9.882;2023-10-13T07:37:49;100332.69;;;18.70;100.00
21520;BME280;10921;53.614;9.882;2023-10-13T07:40:19;100328.31;;;18.69;100.00
21520;BME280;10921;53.614;9.882;2023-10-13T07:43:06;100309.38;;;18.69;100.00
21520;BME280;10921;53.614;9.882;2023-10-13T07:45:37;100248.25;;;18.28;100.00
21520;BME280;10921;53.614;9.882;2023-10-13T07:48:09;100286.97;;;18.62;100.00
21520;BME280;10921;53.614;9.882;2023-10-13T07:50:48;100304.81;;;18.70;100.00
21520;BME280;10921;53.614;9.882;2023-10-13T07:53:24;100292.72;;;18.52;100.00
21520;BME280;10921;53.614;9.882;2023-10-13T07:55:51;100282.97;;;18.65;100.00
21520;BME280;10921;53.614;9.882;2023-10-13T07:58:28;100265.34;;;18.62;100.00
21520;BME280;10921;53.614;9.882;2023-10-13T08:00:58;100285.91;;;18.70;100.00
21520;BME280;10921;53.614;9.882;2023-10-13T08:03:25;100285.47;;;18.66;100.00
21520;BME280;10921;53.614;9.882;2023-10-13T08:06:16;100264.28;;;18.70;100.00
21520;BME280;10921;53.614;9.882;2023-10-13T08:08:56;100269.06;;;18.68;100.00
21520;BME280;10921;53.614;9.882;2023-10-13T08:11:36;100216.66;;;18.49;100.00
21520;BME280;10921;53.614;9.882;2023-10-13T08:14:05;100241.63;;;18.64;100.00
21520;BME280;10921;53.614;9.882;2023-10-13T08:16:58;100247.03;;;18.64;100.00
21520;BME280;10921;53.614;9.882;2023-10-13T08:19:30;100257.41;;;18.67;100.00
21520;BME280;10921;53.614;9.882;2023-10-13T08:22:08;100247.03;;;18.71;100.00
21520;BME280;10921;53.614;9.882;2023-10-13T08:24:45;100245.16;;;18.65;100.00
21520;BME280;10921;53.614;9.882;2023-10-13T08:27:13;100239.34;;;18.68;100.00
21520;BME280;10921;53.614;9.882;2023-10-13T08:29:49;100245.38;;;18.70;100.00
21520;BME280;10921;53.614;9.882;2023-10-13T08:32:35;100250.34;;;18.66;100.00
21520;BME280;10921;53.614;9.882;2023-10-13T08:35:21;100232.47;;;18.65;100.00
21520;BME280;10921;53.614;9.882;2023-10-13T08:37:57;100222.50;;;18.59;100.00
21520;BME280;10921;53.614;9.882;2023-10-13T08:40:43;100235.00;;;18.60;100.00
21520;BME280;10921;53.614;9.882;2023-10-13T08:43:23;100232.25;;;18.53;100.00
21520;BME280;10921;53.614;9.882;2023-10-13T08:45:51;100247.25;;;18.63;100.00
21520;BME280;10921;53.614;9.882;2023-10-13T08:48:18;100246.63;;;18.60;100.00
21520;BME280;10921;53.614;9.882;2023-10-13T08:50:46;100238.91;;;18.57;100.00
21520;BME280;10921;53.614;9.882;2023-10-13T08:56:04;100206.28;;;18.46;100.00
21520;BME280;10921;53.614;9.882;2023-10-13T08:58:32;100202.50;;;18.34;100.00
21520;BME280;10921;53.614;9.882;2023-10-13T09:01:27;100217.50;;;18.56;100.00
21520;BME280;10921;53.614;9.882;2023-10-13T09:04:16;100223.50;;;18.51;100.00
21520;BME280;10921;53.614;9.882;2023-10-13T09:06:58;100140.63;;;18.06;100.00
21520;BME280;10921;53.614;9.882;2023-10-13T09:12:29;100166.78;;;18.18;100.00
21520;BME280;10921;53.614;9.882;2023-10-13T09:15:05;100219.78;;;18.52;100.00
21520;BME280;10921;53.614;9.882;2023-10-13T09:20:30;100163.91;;;18.33;100.00
21520;BME280;10921;53.614;9.882;2023-10-13T09:23:10;100150.16;;;18.35;100.00
21520;BME280;10921;53.614;9.882;2023-10-13T09:25:40;100183.84;;;18.45;100.00
21520;BME280;10921;53.614;9.882;2023-10-13T09:28:21;100174.47;;;18.54;100.00
21520;BME280;10921;53.614;9.882;2023-10-13T09:30:54;100153.91;;;18.47;100.00
21520;BME280;10921;53.614;9.882;2023-10-13T09:36:07;100152.06;;;18.60;100.00
21520;BME280;10921;53.614;9.882;2023-10-13T09:38:36;100145.59;;;18.68;100.00
21520;BME280;10921;53.614;9.882;2023-10-13T09:41:07;100140.19;;;18.68;100.00
21520;BME280;10921;53.614;9.882;2023-10-13T09:43:53;100127.91;;;18.66;100.00
21520;BME280;10921;53.614;9.882;2023-10-13T09:46:26;100180.44;;;19.09;100.00
21520;BME280;10921;53.614;9.882;2023-10-13T09:48:58;100175.25;;;19.08;100.00
21520;BME280;10921;53.614;9.882;2023-10-13T09:51:34;100100.53;;;18.62;100.00
21520;BME280;10921;53.614;9.882;2023-10-13T09:54:20;100116.22;;;18.85;100.00
21520;BME280;10921;53.614;9.882;2023-10-13T09:57:08;100098.59;;;18.76;100.00
21520;BME280;10921;53.614;9.882;2023-10-13T09:59:42;100166.03;;;19.15;100.00
21520;BME280;10921;53.614;9.882;2023-10-13T10:02:18;100142.38;;;18.97;100.00
21520;BME280;10921;53.614;9.882;2023-10-13T10:04:53;100144.25;;;18.97;100.00
21520;BME280;10921;53.614;9.882;2023-10-13T10:07:24;100171.25;;;19.17;100.00
21520;BME280;10921;53.614;9.882;2023-10-13T10:10:00;100117.84;;;18.99;100.00
21520;BME280;10921;53.614;9.882;2023-10-13T10:12:49;100074.03;;;18.84;100.00
21520;BME280;10921;53.614;9.882;2023-10-13T10:15:33;100129.84;;;19.16;100.00
21520;BME280;10921;53.614;9.882;2023-10-13T10:18:02;99904.44;;;17.70;100.00
21520;BME280;10921;53.614;9.882;2023-10-13T10:20:35;100113.94;;;18.82;100.00
21520;BME280;10921;53.614;9.882;2023-10-13T10:23:26;100106.19;;;19.05;100.00
21520;BME280;10921;53.614;9.882;2023-10-13T10:25:55;99988.53;;;18.38;100.00
21520;BME280;10921;53.614;9.882;2023-10-13T10:28:38;100104.72;;;19.09;100.00
21520;BME280;10921;53.614;9.882;2023-10-13T10:31:09;99986.66;;;18.39;100.00
21520;BME280;10921;53.614;9.882;2023-10-13T10:33:39;100030.84;;;18.77;100.00
21520;BME280;10921;53.614;9.882;2023-10-13T10:36:07;99998.44;;;18.64;100.00
21520;BME280;10921;53.614;9.882;2023-10-13T10:38:54;99977.03;;;18.56;100.00
21520;BME280;10921;53.614;9.882;2023-10-13T10:41:33;100095.00;;;19.40;100.00
21520;BME280;10921;53.614;9.882;2023-10-13T10:44:12;100064.84;;;19.36;100.00
21520;BME280;10921;53.614;9.882;2023-10-13T10:46:43;99980.81;;;19.00;100.00
21520;BME280;10921;53.614;9.882;2023-10-13T10:49:26;100049.00;;;19.40;100.00
21520;BME280;10921;53.614;9.882;2023-10-13T10:51:58;99952.78;;;18.94;100.00
21520;BME280;10921;53.614;9.882;2023-10-13T10:54:27;99934.53;;;18.83;100.00
21520;BME280;10921;53.614;9.882;2023-10-13T10:57:00;99676.47;;;17.35;100.00
21520;BME280;10921;53.614;9.882;2023-10-13T10:59:45;99952.22;;;19.10;100.00
21520;BME280;10921;53.614;9.882;2023-10-13T11:02:12;99974.44;;;19.19;100.00
21520;BME280;10921;53.614;9.882;2023-10-13T11:04:50;100026.91;;;19.74;100.00
21520;BME280;10921;53.614;9.882;2023-10-13T11:07:23;100024.78;;;19.83;100.00
21520;BME280;10921;53.614;9.882;2023-10-13T11:09:50;100002.22;;;19.89;100.00
21520;BME280;10921;53.614;9.882;2023-10-13T11:12:19;99962.25;;;19.66;100.00
21520;BME280;10921;53.614;9.882;2023-10-13T11:15:08;99981.38;;;19.89;100.00
21520;BME280;10921;53.614;9.882;2023-10-13T11:17:48;99967.88;;;20.08;100.00
21520;BME280;10921;53.614;9.882;2023-10-13T11:20:18;99852.47;;;19.27;100.00
21520;BME280;10921;53.614;9.882;2023-10-13T11:22:55;99969.59;;;20.20;100.00
21520;BME280;10921;53.614;9.882;2023-10-13T11:25:26;99886.16;;;19.74;100.00
21520;BME280;10921;53.614;9.882;2023-10-13T11:27:57;99894.53;;;19.91;100.00
21520;BME280;10921;53.614;9.882;2023-10-13T11:30:32;99884.91;;;19.95;100.00
21520;BME280;10921;53.614;9.882;2023-10-13T11:33:07;99882.41;;;19.93;100.00
21520;BME280;10921;53.614;9.882;2023-10-13T11:35:36;99932.53;;;20.39;100.00
21520;BME280;10921;53.614;9.882;2023-10-13T11:38:16;99889.75;;;20.59;100.00
21520;BME280;10921;53.614;9.882;2023-10-13T11:41:02;99870.53;;;20.31;100.00
21520;BME280;10921;53.614;9.882;2023-10-13T11:43:37;99880.00;;;20.40;100.00
21520;BME280;10921;53.614;9.882;2023-10-13T11:46:14;99922.16;;;20.66;100.00
21520;BME280;10921;53.614;9.882;2023-10-13T11:48:45;99955.63;;;20.90;100.00
21520;BME280;10921;53.614;9.882;2023-10-13T11:51:21;99885.84;;;20.55;99.74
21520;BME280;10921;53.614;9.882;2023-10-13T11:53:52;99741.91;;;20.03;99.50
21520;BME280;10921;53.614;9.882;2023-10-13T11:56:20;99781.13;;;20.31;99.57
21520;BME280;10921;53.614;9.882;2023-10-13T11:58:50;99735.59;;;20.10;98.69
21520;BME280;10921;53.614;9.882;2023-10-13T12:01:18;99663.00;;;19.88;96.41
21520;BME280;10921;53.614;9.882;2023-10-13T12:03:46;99827.63;;;20.99;96.16
21520;BME280;10921;53.614;9.882;2023-10-13T12:06:32;99892.44;;;21.54;94.87
21520;BME280;10921;53.614;9.882;2023-10-13T12:09:03;99891.84;;;21.64;94.93
21520;BME280;10921;53.614;9.882;2023-10-13T12:12:04;99861.28;;;21.57;93.29
21520;BME280;10921;53.614;9.882;2023-10-13T12:14:31;99851.84;;;21.48;93.46
21520;BME280;10921;53.614;9.882;2023-10-13T12:17:19;99793.47;;;21.33;90.78
21520;BME280;10921;53.614;9.882;2023-10-13T12:19:52;99694.50;;;20.89;90.40
21520;BME280;10921;53.614;9.882;2023-10-13T12:22:19;99769.38;;;21.14;89.44
21520;BME280;10921;53.614;9.882;2023-10-13T12:24:57;99850.41;;;21.80;89.47
21520;BME280;10921;53.614;9.882;2023-10-13T12:27:23;99731.31;;;21.20;88.34
21520;BME280;10921;53.614;9.882;2023-10-13T12:30:01;99680.72;;;20.91;87.98
21520;BME280;10921;53.614;9.882;2023-10-13T12:32:34;99854.84;;;22.09;86.82
21520;BME280;10921;53.614;9.882;2023-10-13T12:35:01;99689.44;;;20.93;86.33
21520;BME280;10921;53.614;9.882;2023-10-13T12:37:31;99862.28;;;22.14;85.43
21520;BME280;10921;53.614;9.882;2023-10-13T12:40:09;99875.44;;;22.34;85.33
21520;BME280;10921;53.614;9.882;2023-10-13T12:42:54;99881.75;;;22.51;84.59
21520;BME280;10921;53.614;9.882;2023-10-13T12:45:41;99813.06;;;21.87;84.18
21520;BME280;10921;53.614;9.882;2023-10-13T12:48:26;99809.22;;;22.23;83.22
21520;BME280;10921;53.614;9.882;2023-10-13T12:51:13;99830.53;;;22.31;82.30
21520;BME280;10921;53.614;9.882;2023-10-13T12:53:58;99807.91;;;22.26;82.07
21520;BME280;10921;53.614;9.882;2023-10-13T12:56:42;99788.34;;;22.12;82.40
21520;BME280;10921;53.614;9.882;2023-10-13T12:59:09;99873.22;;;22.59;82.30
21520;BME280;10921;53.614;9.882;2023-10-13T13:01:42;99831.75;;;22.52;82.79
21520;BME280;10921;53.614;9.882;2023-10-13T13:04:10;99846.78;;;22.55;82.61
21520;BME280;10921;53.614;9.882;2023-10-13T13:06:54;99692.25;;;22.01;83.42
21520;BME280;10921;53.614;9.882;2023-10-13T13:09:21;99843.94;;;22.78;83.00
21520;BME280;10921;53.614;9.882;2023-10-13T13:11:54;99762.09;;;22.18;83.25
21520;BME280;10921;53.614;9.882;2023-10-13T13:14:24;99784.09;;;22.33;83.01
21520;BME280;10921;53.614;9.882;2023-10-13T13:17:02;99800.44;;;22.50;82.37
21520;BME280;10921;53.614;9.882;2023-10-13T13:19:36;99832.53;;;22.64;82.67
21520;BME280;10921;53.614;9.882;2023-10-13T13:22:08;99820.09;;;22.68;82.69
21520;BME280;10921;53.614;9.882;2023-10-13T13:24:41;99787.72;;;22.67;81.92
21520;BME280;10921;53.614;9.882;2023-10-13T13:27:14;99460.34;;;20.67;82.07
21520;BME280;10921;53.614;9.882;2023-10-13T13:29:45;99751.78;;;22.48;82.22
21520;BME280;10921;53.614;9.882;2023-10-13T13:32:12;99509.41;;;20.94;82.09
21520;BME280;10921;53.614;9.882;2023-10-13T13:34:51;99799.22;;;23.19;81.97
21520;BME280;10921;53.614;9.882;2023-10-13T13:37:25;99751.25;;;22.79;81.42
21520;BME280;10921;53.614;9.882;2023-10-13T13:39:54;99739.19;;;22.75;81.11
21520;BME280;10921;53.614;9.882;2023-10-13T13:42:20;99722.16;;;22.80;80.65